createdAt,value
2019-05-14T00:00:52.464Z,30.20
2019-05-14T00:03:22.125Z,30.20
2019-05-14T00:05:51.917Z,30.40
2019-05-14T00:08:22.219Z,30.50
2019-05-14T00:10:54.902Z,30.50
2019-05-14T00:13:25.752Z,30.60
2019-05-14T00:15:55.390Z,30.80
2019-05-14T00:18:32.638Z,30.80
2019-05-14T00:21:02.565Z,31.10
2019-05-14T00:23:32.199Z,31.20
2019-05-14T00:26:02.032Z,31.00
2019-05-14T00:28:31.973Z,31.00
2019-05-14T00:31:02.874Z,31.00
2019-05-14T00:33:32.810Z,32.10
2019-05-14T00:36:02.657Z,32.00
2019-05-14T00:38:32.646Z,32.10
2019-05-14T00:41:02.245Z,32.30
2019-05-14T00:43:32.365Z,32.10
2019-05-14T00:46:02.230Z,32.40
2019-05-14T00:48:32.145Z,32.50
2019-05-14T00:51:02.253Z,32.60
2019-05-14T00:53:32.381Z,32.60
2019-05-14T00:56:02.372Z,32.50
2019-05-14T00:58:32.291Z,32.60
2019-05-14T01:01:01.955Z,33.20
2019-05-14T01:03:32.398Z,32.60
2019-05-14T01:06:02.946Z,32.80
2019-05-14T01:08:32.738Z,32.80
2019-05-14T01:11:02.339Z,32.70
2019-05-14T01:13:32.219Z,32.80
2019-05-14T01:16:25.286Z,32.80
2019-05-14T01:18:55.163Z,32.90
2019-05-14T01:21:24.751Z,32.90
2019-05-14T01:23:54.573Z,33.10
2019-05-14T01:26:24.101Z,33.00
2019-05-14T01:28:54.342Z,33.10
2019-05-14T01:31:24.000Z,33.20
2019-05-14T01:33:53.772Z,33.30
2019-05-14T01:36:23.448Z,33.40
2019-05-14T01:38:52.963Z,33.50
2019-05-14T01:41:22.610Z,33.60
2019-05-14T01:43:52.156Z,33.70
2019-05-14T01:46:21.723Z,33.60
2019-05-14T01:48:52.137Z,33.80
2019-05-14T01:51:22.365Z,33.80
2019-05-14T01:53:53.341Z,33.80
2019-05-14T01:56:28.531Z,33.90
2019-05-14T01:59:06.120Z,33.90
2019-05-14T02:01:37.565Z,34.10
2019-05-14T02:04:07.443Z,34.10
2019-05-14T02:06:51.352Z,34.10
2019-05-14T02:09:15.461Z,34.20
2019-05-14T02:11:45.330Z,34.40
2019-05-14T02:14:14.846Z,34.40
2019-05-14T02:16:44.510Z,34.40
2019-05-14T02:19:14.131Z,34.50
2019-05-14T02:21:43.665Z,34.60
2019-05-14T02:24:14.578Z,34.80
2019-05-14T02:26:44.161Z,35.60
2019-05-14T02:29:13.674Z,35.60
2019-05-14T02:31:43.476Z,35.10
2019-05-14T02:34:13.013Z,35.10
2019-05-14T02:36:42.567Z,35.20
2019-05-14T02:39:12.096Z,35.30
2019-05-14T02:41:41.629Z,35.30
2019-05-14T02:44:11.159Z,35.40
2019-05-14T02:46:41.063Z,35.40
2019-05-14T02:49:10.824Z,35.40
2019-05-14T02:51:41.099Z,36.00
2019-05-14T02:54:10.624Z,35.60
2019-05-14T02:56:40.619Z,35.70
2019-05-14T02:59:30.902Z,35.80
2019-05-14T03:02:00.561Z,35.70
2019-05-14T03:04:39.449Z,35.60
2019-05-14T03:07:10.912Z,35.80
2019-05-14T03:09:40.775Z,36.00
2019-05-14T03:12:10.593Z,36.20
2019-05-14T03:14:40.392Z,36.10
2019-05-14T03:17:12.923Z,36.20
2019-05-14T03:19:42.749Z,36.10
2019-05-14T03:22:12.582Z,36.10
2019-05-14T03:24:42.200Z,36.10
2019-05-14T03:27:13.339Z,36.10
2019-05-14T03:29:43.713Z,36.00
2019-05-14T03:32:14.038Z,36.10
2019-05-14T03:34:44.291Z,36.10
2019-05-14T03:37:23.584Z,36.10
2019-05-14T03:39:49.404Z,36.20
2019-05-14T03:42:19.611Z,36.20
2019-05-14T03:44:49.551Z,36.30
2019-05-14T03:47:19.842Z,36.20
2019-05-14T03:49:50.354Z,36.30
2019-05-14T03:52:20.960Z,36.30
2019-05-14T03:54:51.194Z,36.60
2019-05-14T03:57:21.020Z,36.70
2019-05-14T03:59:50.957Z,36.60
2019-05-14T04:02:21.046Z,36.60
2019-05-14T04:04:51.169Z,36.80
2019-05-14T04:07:20.936Z,36.80
2019-05-14T04:09:50.894Z,36.80
2019-05-14T04:12:20.498Z,36.90
2019-05-14T04:14:50.419Z,37.00
2019-05-14T04:17:32.532Z,37.10
2019-05-14T04:20:00.007Z,37.20
2019-05-14T04:22:29.949Z,37.10
2019-05-14T04:24:59.683Z,37.10
2019-05-14T04:27:49.563Z,37.10
2019-05-14T04:30:24.068Z,37.20
2019-05-14T04:32:50.923Z,37.10
2019-05-14T04:35:20.698Z,37.20
2019-05-14T04:37:50.517Z,37.10
2019-05-14T04:40:20.119Z,37.00
2019-05-14T04:42:50.558Z,37.00
2019-05-14T04:45:22.211Z,36.90
2019-05-14T04:47:51.739Z,36.90
2019-05-14T04:50:25.288Z,36.70
2019-05-14T04:52:53.010Z,36.80
2019-05-14T04:55:22.900Z,37.10
2019-05-14T04:57:52.453Z,37.70
2019-05-14T05:00:22.055Z,38.60
2019-05-14T05:02:51.915Z,38.00
2019-05-14T05:05:21.798Z,37.90
2019-05-14T05:07:51.746Z,37.40
2019-05-14T05:10:21.584Z,36.60
2019-05-14T05:12:52.375Z,35.80
2019-05-14T05:15:21.918Z,34.80
2019-05-14T05:17:53.049Z,33.80
2019-05-14T05:20:23.103Z,32.20
2019-05-14T05:22:53.071Z,31.20
2019-05-14T05:25:23.087Z,30.00
2019-05-14T05:27:56.236Z,28.80
2019-05-14T05:30:24.250Z,28.30
2019-05-14T05:32:54.130Z,28.30
2019-05-14T05:35:23.853Z,28.00
2019-05-14T05:37:53.430Z,27.30
2019-05-14T05:40:22.990Z,26.40
2019-05-14T05:42:52.637Z,26.50
2019-05-14T05:45:22.435Z,25.80
2019-05-14T05:47:57.819Z,23.90
2019-05-14T05:50:23.254Z,23.70
2019-05-14T05:52:53.846Z,23.00
2019-05-14T05:55:23.570Z,22.70
2019-05-14T05:57:53.149Z,22.40
2019-05-14T06:00:39.514Z,21.10
2019-05-14T06:03:10.716Z,21.00
2019-05-14T06:05:39.608Z,20.70
2019-05-14T06:08:09.308Z,20.50
2019-05-14T06:10:39.954Z,20.10
2019-05-14T06:13:11.033Z,20.10
2019-05-14T06:15:47.857Z,19.20
2019-05-14T06:18:18.045Z,18.60
2019-05-14T06:20:44.301Z,18.30
2019-05-14T06:23:14.025Z,18.60
2019-05-14T06:25:44.098Z,17.60
2019-05-14T06:28:14.061Z,17.40
2019-05-14T06:30:44.274Z,17.50
2019-05-14T06:33:14.669Z,17.80
2019-05-14T06:35:44.234Z,17.20
2019-05-14T06:38:13.819Z,17.00
2019-05-14T06:40:43.346Z,17.00
2019-05-14T06:43:13.013Z,15.90
2019-05-14T06:45:42.642Z,15.60
2019-05-14T06:48:26.850Z,15.40
2019-05-14T06:50:43.419Z,15.40
2019-05-14T06:53:13.381Z,14.90
2019-05-14T06:55:43.121Z,15.20
2019-05-14T06:58:12.670Z,14.90
2019-05-14T07:00:42.531Z,14.80
2019-05-14T07:03:12.107Z,14.50
2019-05-14T07:05:41.715Z,14.60
2019-05-14T07:08:11.695Z,14.10
2019-05-14T07:10:41.360Z,13.70
2019-05-14T07:13:11.168Z,14.00
2019-05-14T07:15:40.760Z,13.90
2019-05-14T07:18:10.364Z,13.90
2019-05-14T07:20:39.901Z,13.40
2019-05-14T07:23:09.730Z,13.20
2019-05-14T07:25:39.670Z,12.90
2019-05-14T07:28:09.470Z,12.60
2019-05-14T07:30:39.790Z,12.30
2019-05-14T07:33:09.903Z,12.10
2019-05-14T07:35:39.484Z,12.40
2019-05-14T07:38:09.220Z,12.50
2019-05-14T07:40:39.259Z,12.30
2019-05-14T07:43:09.270Z,12.60
2019-05-14T07:45:39.177Z,12.70
2019-05-14T07:48:09.647Z,12.50
2019-05-14T07:50:39.955Z,12.60
2019-05-14T07:53:09.997Z,12.40
2019-05-14T07:55:39.634Z,12.20
2019-05-14T07:58:09.513Z,11.90
2019-05-14T08:00:40.264Z,12.30
2019-05-14T08:03:10.382Z,12.40
2019-05-14T08:05:39.966Z,12.30
2019-05-14T08:08:09.679Z,12.20
2019-05-14T08:10:39.783Z,12.10
2019-05-14T08:13:09.915Z,11.60
2019-05-14T08:15:39.519Z,11.30
2019-05-14T08:18:09.461Z,10.90
2019-05-14T08:20:39.050Z,10.50
2019-05-14T08:23:09.149Z,10.10
2019-05-14T08:25:40.121Z,10.00
2019-05-14T08:28:09.806Z,9.90
2019-05-14T08:30:39.714Z,10.10
2019-05-14T08:33:09.309Z,9.70
2019-05-14T08:35:39.488Z,9.70
2019-05-14T08:38:12.218Z,9.70
2019-05-14T08:40:41.906Z,10.40
2019-05-14T08:43:11.760Z,11.10
2019-05-14T08:45:41.367Z,10.70
2019-05-14T08:48:11.269Z,10.70
2019-05-14T08:50:41.113Z,10.80
2019-05-14T08:53:10.749Z,10.70
2019-05-14T08:55:40.802Z,11.00
2019-05-14T08:58:13.756Z,11.00
2019-05-14T09:00:41.804Z,10.70
2019-05-14T09:03:11.433Z,10.40
2019-05-14T09:05:41.244Z,10.90
2019-05-14T09:08:10.868Z,11.00
2019-05-14T09:10:40.515Z,11.10
2019-05-14T09:13:10.114Z,11.20
2019-05-14T09:15:39.754Z,11.30
2019-05-14T09:18:11.835Z,11.90
2019-05-14T09:20:41.829Z,11.60
2019-05-14T09:23:11.641Z,11.40
2019-05-14T09:25:47.303Z,11.10
2019-05-14T09:28:12.627Z,11.30
2019-05-14T09:30:42.487Z,11.30
2019-05-14T09:33:13.168Z,10.60
2019-05-14T09:35:43.281Z,10.90
2019-05-14T09:38:13.235Z,11.30
2019-05-14T09:40:43.089Z,11.00
2019-05-14T09:43:12.684Z,10.80
2019-05-14T09:45:42.396Z,10.60
2019-05-14T09:48:12.283Z,10.50
2019-05-14T09:50:41.918Z,10.50
2019-05-14T09:53:11.937Z,10.30
2019-05-14T09:55:41.542Z,10.00
2019-05-14T09:58:11.208Z,10.10
2019-05-14T10:00:41.782Z,10.40
2019-05-14T10:03:11.835Z,10.30
2019-05-14T10:05:41.426Z,10.50
2019-05-14T10:08:11.218Z,10.90
2019-05-14T10:10:40.882Z,11.30
2019-05-14T10:13:10.481Z,11.60
2019-05-14T10:15:40.326Z,11.30
2019-05-14T10:18:11.979Z,11.20
2019-05-14T10:20:45.682Z,11.00
2019-05-14T10:23:13.413Z,11.00
2019-05-14T10:25:43.213Z,11.00
2019-05-14T10:28:12.814Z,11.10
2019-05-14T10:30:42.847Z,11.20
2019-05-14T10:33:15.012Z,11.40
2019-05-14T10:35:44.978Z,11.40
2019-05-14T10:38:15.583Z,11.70
2019-05-14T10:40:45.174Z,11.80
2019-05-14T10:43:14.967Z,11.70
2019-05-14T10:45:44.663Z,12.10
2019-05-14T10:48:14.341Z,12.40
2019-05-14T10:50:56.278Z,13.00
2019-05-14T10:53:15.551Z,13.10
2019-05-14T10:55:45.091Z,13.20
2019-05-14T10:58:14.741Z,13.30
2019-05-14T11:00:44.358Z,13.20
2019-05-14T11:03:14.244Z,13.20
2019-05-14T11:05:44.066Z,13.20
2019-05-14T11:08:13.965Z,13.50
2019-05-14T11:10:43.626Z,13.50
2019-05-14T11:13:13.194Z,13.40
2019-05-14T11:15:42.722Z,13.30
2019-05-14T11:18:12.279Z,13.00
2019-05-14T11:20:42.461Z,13.00
2019-05-14T11:23:12.627Z,13.20
2019-05-14T11:25:42.505Z,13.60
2019-05-14T11:28:12.124Z,13.80
2019-05-14T11:30:42.118Z,13.70
2019-05-14T11:33:12.210Z,13.70
2019-05-14T11:35:42.046Z,14.20
2019-05-14T11:38:28.071Z,14.40
2019-05-14T11:40:42.909Z,14.40
2019-05-14T11:43:13.564Z,14.60
2019-05-14T11:45:43.212Z,14.90
2019-05-14T11:48:12.854Z,15.10
2019-05-14T11:50:42.451Z,15.20
2019-05-14T11:53:12.499Z,15.50
2019-05-14T11:55:42.175Z,15.40
2019-05-14T11:58:11.782Z,15.60
2019-05-14T12:00:41.359Z,16.10
2019-05-14T12:03:11.085Z,16.30
2019-05-14T12:05:41.012Z,16.20
2019-05-14T12:08:11.997Z,16.70
2019-05-14T12:10:41.907Z,16.50
2019-05-14T12:13:11.472Z,16.70
2019-05-14T12:15:40.998Z,17.00
2019-05-14T12:18:10.864Z,17.10
2019-05-14T12:20:40.435Z,17.30
2019-05-14T12:23:10.294Z,17.30
2019-05-14T12:25:39.863Z,17.20
2019-05-14T12:28:13.589Z,17.70
2019-05-14T12:30:40.814Z,17.80
2019-05-14T12:33:10.439Z,18.00
2019-05-14T12:35:40.469Z,18.10
2019-05-14T12:38:10.545Z,17.90
2019-05-14T12:40:40.198Z,17.60
2019-05-14T12:43:09.863Z,17.80
2019-05-14T12:45:48.068Z,17.50
2019-05-14T12:48:18.835Z,17.60
2019-05-14T12:50:49.845Z,17.60
2019-05-14T12:53:20.062Z,17.60
2019-05-14T12:55:49.716Z,17.90
2019-05-14T12:58:20.315Z,17.90
2019-05-14T13:00:50.589Z,18.50
2019-05-14T13:03:23.411Z,18.90
2019-05-14T13:05:53.037Z,19.10
2019-05-14T13:08:22.565Z,19.40
2019-05-14T13:10:52.665Z,19.50
2019-05-14T13:13:22.298Z,19.10
2019-05-14T13:15:52.064Z,18.60
2019-05-14T13:18:21.657Z,18.60
2019-05-14T13:20:52.100Z,18.50
2019-05-14T13:23:22.103Z,19.50
2019-05-14T13:25:52.031Z,19.80
2019-05-14T13:28:21.938Z,19.40
2019-05-14T13:30:51.526Z,19.10
2019-05-14T13:33:21.147Z,19.00
2019-05-14T13:35:55.694Z,18.90
2019-05-14T13:38:23.623Z,18.90
2019-05-14T13:40:53.230Z,18.00
2019-05-14T13:43:23.336Z,17.40
2019-05-14T13:45:53.125Z,17.10
2019-05-14T13:48:22.801Z,17.30
2019-05-14T13:50:52.526Z,17.60
2019-05-14T13:53:22.218Z,17.60
2019-05-14T13:55:57.659Z,18.00
2019-05-14T13:58:25.041Z,18.30
2019-05-14T14:00:54.741Z,18.40
2019-05-14T14:03:24.586Z,19.00
2019-05-14T14:05:54.259Z,19.10
2019-05-14T14:08:23.952Z,19.60
2019-05-14T14:10:54.439Z,19.70
2019-05-14T14:13:24.538Z,19.50
2019-05-14T14:15:54.087Z,19.50
2019-05-14T14:18:26.475Z,19.90
2019-05-14T14:20:56.084Z,19.70
2019-05-14T14:23:30.757Z,19.40
2019-05-14T14:25:59.515Z,19.30
2019-05-14T14:28:28.602Z,19.30
2019-05-14T14:30:58.717Z,19.40
2019-05-14T14:33:29.021Z,19.50
2019-05-14T14:35:59.024Z,19.40
2019-05-14T14:38:29.432Z,19.70
2019-05-14T14:40:59.378Z,20.10
2019-05-14T14:43:29.650Z,20.30
2019-05-14T14:46:00.698Z,20.30
2019-05-14T14:48:30.734Z,20.50
2019-05-14T14:51:00.542Z,20.60
2019-05-14T14:53:43.016Z,20.60
2019-05-14T14:56:02.222Z,20.00
2019-05-14T14:58:32.254Z,19.70
2019-05-14T15:01:01.916Z,19.70
2019-05-14T15:03:31.466Z,19.70
2019-05-14T15:06:01.068Z,19.70
2019-05-14T15:08:30.827Z,20.00
2019-05-14T15:11:00.458Z,20.20
2019-05-14T15:13:30.182Z,20.20
2019-05-14T15:16:01.027Z,20.40
2019-05-14T15:18:31.146Z,20.60
2019-05-14T15:21:02.127Z,20.90
2019-05-14T15:23:32.312Z,21.10
2019-05-14T15:26:02.002Z,21.60
2019-05-14T15:28:31.685Z,22.20
2019-05-14T15:31:01.950Z,22.40
2019-05-14T15:33:31.688Z,22.50
2019-05-14T15:36:09.171Z,22.30
2019-05-14T15:38:40.668Z,22.50
2019-05-14T15:41:13.637Z,22.50
2019-05-14T15:43:42.259Z,22.60
2019-05-14T15:46:12.059Z,22.60
2019-05-14T15:48:41.688Z,22.50
2019-05-14T15:51:15.117Z,22.50
2019-05-14T15:54:04.997Z,22.20
2019-05-14T15:56:29.845Z,22.10
2019-05-14T15:59:01.320Z,22.10
2019-05-14T16:01:30.492Z,22.40
2019-05-14T16:04:00.769Z,22.50
2019-05-14T16:06:30.434Z,23.30
2019-05-14T16:09:00.338Z,25.10
2019-05-14T16:11:30.738Z,26.10
2019-05-14T16:14:00.665Z,26.40
2019-05-14T16:16:30.451Z,27.10
2019-05-14T16:19:00.030Z,26.90
2019-05-14T16:21:29.616Z,27.70
2019-05-14T16:23:59.471Z,28.30
2019-05-14T16:26:29.380Z,28.90
2019-05-14T16:29:04.746Z,29.20
2019-05-14T16:31:38.129Z,29.40
2019-05-14T16:34:09.895Z,29.50
2019-05-14T16:36:41.238Z,29.60
2019-05-14T16:39:12.469Z,29.70
2019-05-14T16:41:42.424Z,29.50
2019-05-14T16:44:12.116Z,29.70
2019-05-14T16:46:41.943Z,29.60
2019-05-14T16:49:12.792Z,29.40
2019-05-14T16:51:43.410Z,29.30
2019-05-14T16:54:13.214Z,29.20
2019-05-14T16:56:43.237Z,29.10
2019-05-14T16:59:12.755Z,29.00
2019-05-14T17:01:42.288Z,28.90
2019-05-14T17:04:11.874Z,28.70
2019-05-14T17:06:41.542Z,28.60
2019-05-14T17:09:11.430Z,28.50
2019-05-14T17:11:41.038Z,28.50
2019-05-14T17:14:18.353Z,28.50
2019-05-14T17:16:49.185Z,28.40
2019-05-14T17:19:19.001Z,28.30
2019-05-14T17:21:49.443Z,28.40
2019-05-14T17:24:19.967Z,28.40
2019-05-14T17:26:51.042Z,28.60
2019-05-14T17:29:21.909Z,28.80
2019-05-14T17:31:55.507Z,28.70
2019-05-14T17:34:25.086Z,28.90
2019-05-14T17:36:54.654Z,28.90
2019-05-14T17:39:24.666Z,28.80
2019-05-14T17:41:55.830Z,29.00
2019-05-14T17:44:25.675Z,29.10
2019-05-14T17:46:55.218Z,29.20
2019-05-14T17:49:24.901Z,29.10
2019-05-14T17:51:58.085Z,29.20
2019-05-14T17:54:28.667Z,29.30
2019-05-14T17:56:59.179Z,29.40
2019-05-14T17:59:29.958Z,29.40
2019-05-14T18:02:01.128Z,29.30
2019-05-14T18:04:31.066Z,29.40
2019-05-14T18:07:01.851Z,29.40
2019-05-14T18:09:31.545Z,29.50
2019-05-14T18:12:01.658Z,29.50
2019-05-14T18:14:31.379Z,29.60
2019-05-14T18:17:01.194Z,29.60
2019-05-14T18:19:30.759Z,29.70
2019-05-14T18:22:00.755Z,29.70
2019-05-14T18:24:30.332Z,29.70
2019-05-14T18:27:00.711Z,29.70
2019-05-14T18:29:30.589Z,29.70
2019-05-14T18:32:01.376Z,29.70
2019-05-14T18:34:31.945Z,29.80
2019-05-14T18:37:01.547Z,29.80
2019-05-14T18:39:31.582Z,30.00
2019-05-14T18:42:01.221Z,30.00
2019-05-14T18:44:31.675Z,30.10
2019-05-14T18:47:01.510Z,30.30
2019-05-14T18:49:31.150Z,30.40
2019-05-14T18:52:01.749Z,30.60
2019-05-14T18:54:31.333Z,30.60
2019-05-14T18:57:01.118Z,30.60
2019-05-14T18:59:31.099Z,30.90
2019-05-14T19:02:01.048Z,31.10
2019-05-14T19:04:30.646Z,31.20
2019-05-14T19:07:00.277Z,31.20
2019-05-14T19:09:29.921Z,31.50
2019-05-14T19:11:59.635Z,31.40
2019-05-14T19:14:30.063Z,31.60
2019-05-14T19:17:00.188Z,31.70
2019-05-14T19:19:30.110Z,31.70
2019-05-14T19:22:00.211Z,31.90
2019-05-14T19:24:30.124Z,32.10
2019-05-14T19:26:59.948Z,32.20
2019-05-14T19:29:29.569Z,32.30
2019-05-14T19:31:59.106Z,32.40
2019-05-14T19:34:29.138Z,32.60
2019-05-14T19:36:58.790Z,32.70
2019-05-14T19:39:28.350Z,32.70
2019-05-14T19:41:59.034Z,33.00
2019-05-14T19:44:29.744Z,33.10
2019-05-14T19:47:00.525Z,33.40
2019-05-14T19:49:30.407Z,33.40
2019-05-14T19:52:00.046Z,33.50
2019-05-14T19:54:29.784Z,33.60
2019-05-14T19:57:00.862Z,33.60
2019-05-14T19:59:30.999Z,33.70
2019-05-14T20:02:00.602Z,33.90
2019-05-14T20:04:30.412Z,33.80
2019-05-14T20:07:00.389Z,34.10
2019-05-14T20:09:29.938Z,33.90
2019-05-14T20:11:59.570Z,33.90
2019-05-14T20:14:29.148Z,34.10
2019-05-14T20:16:58.807Z,34.20
2019-05-14T20:19:28.711Z,34.10
2019-05-14T20:21:58.847Z,34.20
2019-05-14T20:24:28.710Z,34.20
2019-05-14T20:27:08.248Z,34.30
2019-05-14T20:29:29.620Z,34.40
2019-05-14T20:32:01.650Z,34.50
2019-05-14T20:34:30.603Z,34.50
2019-05-14T20:37:00.174Z,34.60
2019-05-14T20:39:39.017Z,34.50
2019-05-14T20:42:09.167Z,34.70
2019-05-14T20:44:38.956Z,34.60
2019-05-14T20:47:09.186Z,34.60
2019-05-14T20:49:42.441Z,34.70
2019-05-14T20:52:11.965Z,34.60
2019-05-14T20:54:41.653Z,34.60
2019-05-14T20:57:23.287Z,34.80
2019-05-14T20:59:42.892Z,34.80
2019-05-14T21:02:13.375Z,34.90
2019-05-14T21:04:42.982Z,35.00
2019-05-14T21:07:12.660Z,35.30
2019-05-14T21:09:42.712Z,35.20
2019-05-14T21:12:12.306Z,35.30
2019-05-14T21:14:42.102Z,35.50
2019-05-14T21:17:11.902Z,35.50
2019-05-14T21:19:42.904Z,35.60
2019-05-14T21:22:12.918Z,36.10
2019-05-14T21:24:42.807Z,35.80
2019-05-14T21:27:12.482Z,36.00
2019-05-14T21:29:42.091Z,35.90
2019-05-14T21:32:11.666Z,36.00
2019-05-14T21:34:41.896Z,36.10
2019-05-14T21:37:11.743Z,36.10
2019-05-14T21:39:42.678Z,36.00
2019-05-14T21:42:12.225Z,36.10
2019-05-14T21:44:42.122Z,36.80
2019-05-14T21:47:11.643Z,36.40
2019-05-14T21:49:41.188Z,36.50
2019-05-14T21:52:10.717Z,36.60
2019-05-14T21:54:40.628Z,37.30
2019-05-14T21:57:11.823Z,36.80
2019-05-14T21:59:41.657Z,36.80
2019-05-14T22:02:21.863Z,37.50
2019-05-14T22:04:42.739Z,36.90
2019-05-14T22:07:12.304Z,36.90
2019-05-14T22:09:42.293Z,37.10
2019-05-14T22:12:11.903Z,37.00
2019-05-14T22:14:41.472Z,37.10
2019-05-14T22:17:11.035Z,37.10
2019-05-14T22:19:40.583Z,37.60
2019-05-14T22:22:10.158Z,37.10
2019-05-14T22:24:40.037Z,37.10
2019-05-14T22:27:09.661Z,37.20
2019-05-14T22:29:39.249Z,38.20
2019-05-14T22:32:08.846Z,37.30
2019-05-14T22:34:41.327Z,38.20
2019-05-14T22:37:09.806Z,38.30
2019-05-14T22:39:39.749Z,38.20
2019-05-14T22:42:10.351Z,38.20
2019-05-14T22:44:54.250Z,38.30
2019-05-14T22:47:23.780Z,38.40
2019-05-14T22:49:53.305Z,38.40
2019-05-14T22:52:22.901Z,38.40
2019-05-14T22:54:52.732Z,38.40
2019-05-14T22:57:22.263Z,38.50
2019-05-14T22:59:52.150Z,38.50
2019-05-14T23:02:21.630Z,38.50
2019-05-14T23:04:51.270Z,38.40
2019-05-14T23:07:20.959Z,38.40
2019-05-14T23:09:50.503Z,38.30
2019-05-14T23:12:20.037Z,38.40
2019-05-14T23:14:49.958Z,38.20
2019-05-14T23:17:19.827Z,38.10
2019-05-14T23:19:49.866Z,38.20
2019-05-14T23:22:19.393Z,38.30
2019-05-14T23:24:49.903Z,38.40
2019-05-14T23:27:21.507Z,38.40
2019-05-14T23:30:05.875Z,38.40
2019-05-14T23:32:38.137Z,38.50
2019-05-14T23:35:07.763Z,38.40
2019-05-14T23:37:37.349Z,38.40
2019-05-14T23:40:08.598Z,38.50
2019-05-14T23:42:39.360Z,38.50
2019-05-14T23:45:09.118Z,38.50
2019-05-14T23:47:38.717Z,38.60
2019-05-14T23:50:08.404Z,38.90
2019-05-14T23:52:38.804Z,38.70
2019-05-14T23:55:08.819Z,38.70
2019-05-14T23:57:38.452Z,38.30
